createdAt,value
2024-01-16T00:01:03.321Z,99827.53
2024-01-16T00:03:31.117Z,99830.81
2024-01-16T00:06:00.444Z,99822.16
2024-01-16T00:08:28.412Z,99835.38
2024-01-16T00:10:56.149Z,99842.13
2024-01-16T00:13:23.885Z,99845.91
2024-01-16T00:15:51.735Z,99845.94
2024-01-16T00:18:20.030Z,99850.53
2024-01-16T00:20:47.919Z,99851.34
2024-01-16T00:23:17.289Z,99850.53
2024-01-16T00:25:45.466Z,99854.06
2024-01-16T00:28:13.241Z,99861.63
2024-01-16T00:30:40.925Z,99848.94
2024-01-16T00:33:08.792Z,99864.88
2024-01-16T00:35:36.607Z,99864.06
2024-01-16T00:38:04.423Z,99860.81
2024-01-16T00:40:33.585Z,99867.59
2024-01-16T00:43:01.354Z,99878.41
2024-01-16T00:45:29.247Z,99877.84
2024-01-16T00:47:57.129Z,99886.78
2024-01-16T00:50:25.565Z,99886.50
2024-01-16T00:52:53.447Z,99884.63
2024-01-16T00:55:21.253Z,99888.13
2024-01-16T00:57:50.330Z,99890.59
2024-01-16T01:00:18.561Z,99895.19
2024-01-16T01:02:46.406Z,99900.03
2024-01-16T01:05:14.394Z,99904.91
2024-01-16T01:07:42.264Z,99919.53
2024-01-16T01:10:10.987Z,99900.03
2024-01-16T01:12:38.866Z,99918.19
2024-01-16T01:15:09.422Z,99926.25
2024-01-16T01:17:37.383Z,99925.72
2024-01-16T01:20:05.919Z,99939.28
2024-01-16T01:22:33.738Z,99928.44
2024-01-16T01:25:01.538Z,99944.13
2024-01-16T01:27:29.262Z,99937.63
2024-01-16T01:29:57.199Z,99940.59
2024-01-16T01:32:28.147Z,99936.81
2024-01-16T01:34:56.074Z,99943.56
2024-01-16T01:37:23.810Z,99944.38
2024-01-16T01:39:51.550Z,99943.84
2024-01-16T01:42:19.471Z,99942.22
2024-01-16T01:44:47.290Z,99951.38
2024-01-16T01:47:15.444Z,99942.16
2024-01-16T01:49:44.779Z,99942.97
2024-01-16T01:52:12.803Z,99955.13
2024-01-16T01:54:42.474Z,99956.78
2024-01-16T01:57:11.276Z,99954.31
2024-01-16T01:59:39.157Z,99955.16
2024-01-16T02:02:06.991Z,99964.09
2024-01-16T02:04:36.494Z,99967.06
2024-01-16T02:07:06.567Z,99975.72
2024-01-16T02:09:34.544Z,99960.84
2024-01-16T02:12:02.789Z,99968.69
2024-01-16T02:14:30.635Z,99970.31
2024-01-16T02:16:58.408Z,99980.31
2024-01-16T02:19:27.210Z,99986.00
2024-01-16T02:22:00.615Z,99976.28
2024-01-16T02:24:32.691Z,99976.84
2024-01-16T02:27:00.454Z,99973.56
2024-01-16T02:29:28.320Z,99983.03
2024-01-16T02:31:56.075Z,99989.78
2024-01-16T02:34:24.243Z,99992.72
2024-01-16T02:36:52.091Z,99989.19
2024-01-16T02:39:19.840Z,99993.78
2024-01-16T02:41:48.973Z,99998.38
2024-01-16T02:44:16.813Z,99999.16
2024-01-16T02:46:44.862Z,100007.22
2024-01-16T02:49:13.018Z,100016.16
2024-01-16T02:51:40.744Z,100010.72
2024-01-16T02:54:09.080Z,100012.88
2024-01-16T02:56:37.126Z,100013.13
2024-01-16T02:59:06.690Z,100023.16
2024-01-16T03:01:34.530Z,100019.88
2024-01-16T03:04:02.271Z,100021.81
2024-01-16T03:06:30.880Z,100028.34
2024-01-16T03:08:59.048Z,100024.25
2024-01-16T03:11:26.878Z,100024.78
2024-01-16T03:13:54.723Z,100028.31
2024-01-16T03:16:23.965Z,100031.25
2024-01-16T03:18:52.279Z,100028.84
2024-01-16T03:21:20.124Z,100030.16
2024-01-16T03:23:47.930Z,100032.28
2024-01-16T03:26:16.071Z,100034.38
2024-01-16T03:28:44.128Z,100045.69
2024-01-16T03:31:11.950Z,100043.81
2024-01-16T03:33:43.718Z,100038.97
2024-01-16T03:36:13.986Z,100041.84
2024-01-16T03:38:42.244Z,100046.06
2024-01-16T03:41:10.252Z,100044.13
2024-01-16T03:43:38.067Z,100051.88
2024-01-16T03:46:06.180Z,100056.81
2024-01-16T03:48:34.197Z,100051.66
2024-01-16T03:51:03.752Z,100057.88
2024-01-16T03:53:31.646Z,100058.91
2024-01-16T03:55:59.577Z,100063.44
2024-01-16T03:58:27.415Z,100072.38
2024-01-16T04:00:55.222Z,100076.16
2024-01-16T04:03:23.073Z,100075.34
2024-01-16T04:05:51.023Z,100076.16
2024-01-16T04:08:20.266Z,100071.28
2024-01-16T04:10:48.240Z,100084.00
2024-01-16T04:13:16.026Z,100085.94
2024-01-16T04:15:43.795Z,100094.59
2024-01-16T04:18:11.772Z,100087.56
2024-01-16T04:20:39.621Z,100087.88
2024-01-16T04:23:08.521Z,100089.41
2024-01-16T04:25:37.708Z,100082.09
2024-01-16T04:28:06.043Z,100090.47
2024-01-16T04:30:33.873Z,100092.38
2024-01-16T04:33:01.838Z,100094.91
2024-01-16T04:35:29.694Z,100084.88
2024-01-16T04:37:57.476Z,100087.00
2024-01-16T04:40:25.270Z,100092.66
2024-01-16T04:42:54.347Z,100090.50
2024-01-16T04:45:22.262Z,100085.44
2024-01-16T04:47:50.230Z,100076.28
2024-01-16T04:50:18.113Z,100085.72
2024-01-16T04:52:45.961Z,100078.41
2024-01-16T04:55:13.837Z,100081.91
2024-01-16T04:57:42.148Z,100085.38
2024-01-16T05:00:13.237Z,100094.38
2024-01-16T05:02:41.097Z,100094.38
2024-01-16T05:05:09.124Z,100091.16
2024-01-16T05:07:37.097Z,100097.09
2024-01-16T05:10:05.392Z,100096.84
2024-01-16T05:12:35.584Z,100087.06
2024-01-16T05:15:03.369Z,100096.50
2024-01-16T05:17:33.094Z,100090.84
2024-01-16T05:20:01.529Z,100095.41
2024-01-16T05:22:29.305Z,100091.91
2024-01-16T05:24:57.069Z,100091.91
2024-01-16T05:27:26.338Z,100102.16
2024-01-16T05:29:54.106Z,100098.81
2024-01-16T05:32:21.906Z,100104.19
2024-01-16T05:34:51.017Z,100097.69
2024-01-16T05:37:19.468Z,100100.88
2024-01-16T05:39:47.521Z,100098.69
2024-01-16T05:42:15.478Z,100101.94
2024-01-16T05:44:43.732Z,100098.69
2024-01-16T05:47:11.694Z,100109.47
2024-01-16T05:49:39.584Z,100099.56
2024-01-16T05:52:08.938Z,100101.50
2024-01-16T05:54:36.710Z,100110.09
2024-01-16T05:57:04.766Z,100107.16
2024-01-16T05:59:32.582Z,100106.84
2024-01-16T06:02:00.694Z,100106.03
2024-01-16T06:04:28.501Z,100108.97
2024-01-16T06:06:56.390Z,100112.00
2024-01-16T06:09:25.587Z,100119.75
2024-01-16T06:11:53.533Z,100109.03
2024-01-16T06:14:23.055Z,100103.66
2024-01-16T06:16:51.928Z,100105.06
2024-01-16T06:19:19.802Z,100099.09
2024-01-16T06:21:47.623Z,100105.25
2024-01-16T06:24:15.383Z,100096.13
2024-01-16T06:26:44.550Z,100098.13
2024-01-16T06:29:21.443Z,100102.44
2024-01-16T06:31:56.219Z,100099.00
2024-01-16T06:34:24.394Z,100102.81
2024-01-16T06:36:52.224Z,100099.59
2024-01-16T06:39:19.924Z,100105.00
2024-01-16T06:41:49.107Z,100104.22
2024-01-16T06:44:17.013Z,100100.75
2024-01-16T06:46:44.761Z,100094.34
2024-01-16T06:49:12.728Z,100102.78
2024-01-16T06:51:40.545Z,100105.19
2024-01-16T06:54:08.393Z,100111.94
2024-01-16T06:56:36.219Z,100115.91
2024-01-16T06:59:06.400Z,100110.59
2024-01-16T07:01:35.279Z,100112.75
2024-01-16T07:04:03.075Z,100118.13
2024-01-16T07:06:30.950Z,100107.59
2024-01-16T07:08:58.791Z,100121.31
2024-01-16T07:11:26.566Z,100122.09
2024-01-16T07:13:54.337Z,100124.97
2024-01-16T07:16:23.499Z,100128.28
2024-01-16T07:18:51.379Z,100133.09
2024-01-16T07:21:19.832Z,100128.78
2024-01-16T07:23:47.844Z,100139.91
2024-01-16T07:26:17.442Z,100131.00
2024-01-16T07:28:45.679Z,100131.78
2024-01-16T07:31:13.686Z,100137.78
2024-01-16T07:33:42.894Z,100128.28
2024-01-16T07:36:11.294Z,100135.06
2024-01-16T07:38:39.118Z,100139.16
2024-01-16T07:41:07.324Z,100141.63
2024-01-16T07:43:36.219Z,100139.25
2024-01-16T07:46:04.651Z,100132.84
2024-01-16T07:48:32.608Z,100130.69
2024-01-16T07:51:01.829Z,100130.66
2024-01-16T07:53:29.629Z,100125.53
2024-01-16T07:55:57.673Z,100139.91
2024-01-16T07:58:25.451Z,100141.19
2024-01-16T08:00:53.354Z,100139.38
2024-01-16T08:03:21.207Z,100142.16
2024-01-16T08:05:49.093Z,100143.78
2024-01-16T08:08:18.311Z,100145.41
2024-01-16T08:10:46.164Z,100138.19
2024-01-16T08:13:14.058Z,100140.28
2024-01-16T08:15:41.861Z,100144.63
2024-01-16T08:18:09.728Z,100135.72
2024-01-16T08:20:37.641Z,100139.00
2024-01-16T08:23:05.464Z,100147.41
2024-01-16T08:25:34.539Z,100143.69
2024-01-16T08:28:03.012Z,100146.59
2024-01-16T08:30:30.868Z,100135.84
2024-01-16T08:32:58.806Z,100145.06
2024-01-16T08:35:26.942Z,100144.34
2024-01-16T08:37:54.836Z,100142.81
2024-01-16T08:40:22.624Z,100150.94
2024-01-16T08:42:57.994Z,100147.97
2024-01-16T08:45:27.042Z,100137.97
2024-01-16T08:47:54.983Z,100146.66
2024-01-16T08:50:23.116Z,100140.97
2024-01-16T08:52:51.511Z,100150.47
2024-01-16T08:55:19.268Z,100140.19
2024-01-16T08:57:47.015Z,100140.44
2024-01-16T09:00:17.536Z,100139.94
2024-01-16T09:02:45.597Z,100133.41
2024-01-16T09:05:14.543Z,100145.88
2024-01-16T09:07:42.468Z,100137.69
2024-01-16T09:10:11.137Z,100140.19
2024-01-16T09:12:38.921Z,100133.47
2024-01-16T09:15:07.971Z,100122.41
2024-01-16T09:17:37.217Z,100130.47
2024-01-16T09:20:05.848Z,100116.50
2024-01-16T09:22:33.646Z,100115.13
2024-01-16T09:25:02.594Z,100115.16
2024-01-16T09:27:30.362Z,100115.53
2024-01-16T09:29:58.191Z,100131.91
2024-01-16T09:32:26.112Z,100137.41
2024-01-16T09:34:55.345Z,100130.38
2024-01-16T09:37:24.180Z,100132.84
2024-01-16T09:39:52.194Z,100131.66
2024-01-16T09:42:21.855Z,100133.53
2024-01-16T09:44:50.988Z,100144.00
2024-01-16T09:47:19.656Z,100139.53
2024-01-16T09:49:48.932Z,100145.25
2024-01-16T09:52:18.229Z,100148.81
2024-01-16T09:54:46.035Z,100152.31
2024-01-16T09:57:15.408Z,100153.63
2024-01-16T09:59:43.837Z,100145.25
2024-01-16T10:02:13.995Z,100149.78
2024-01-16T10:04:43.428Z,100149.34
2024-01-16T10:07:16.526Z,100156.66
2024-01-16T10:09:46.664Z,100154.22
2024-01-16T10:12:15.887Z,100152.88
2024-01-16T10:14:47.196Z,100150.88
2024-01-16T10:17:18.428Z,100156.13
2024-01-16T10:19:54.376Z,100141.47
2024-01-16T10:22:25.834Z,100145.75
2024-01-16T10:25:06.592Z,100149.56
2024-01-16T10:27:35.056Z,100157.13
2024-01-16T10:30:06.668Z,100154.78
2024-01-16T10:32:37.211Z,100156.56
2024-01-16T10:35:08.434Z,100156.47
2024-01-16T10:37:50.793Z,100153.63
2024-01-16T10:40:23.610Z,100165.78
2024-01-16T10:42:59.906Z,100163.13
2024-01-16T10:45:27.892Z,100154.44
2024-01-16T10:48:03.434Z,100174.25
2024-01-16T10:50:31.353Z,100160.38
2024-01-16T10:53:05.323Z,100157.47
2024-01-16T10:55:42.254Z,100159.16
2024-01-16T10:58:14.365Z,100169.38
2024-01-16T11:00:44.982Z,100168.06
2024-01-16T11:03:20.934Z,100171.66
2024-01-16T11:05:50.297Z,100169.19
2024-01-16T11:08:19.343Z,100169.13
2024-01-16T11:10:51.158Z,100172.16
2024-01-16T11:13:20.381Z,100175.75
2024-01-16T11:15:51.724Z,100165.69
2024-01-16T11:18:20.758Z,100183.72
2024-01-16T11:21:03.074Z,100172.28
2024-01-16T11:23:35.984Z,100180.63
2024-01-16T11:26:26.942Z,100192.41
2024-01-16T11:28:57.463Z,100183.84
2024-01-16T11:31:32.848Z,100184.59
2024-01-16T11:34:02.274Z,100166.84
2024-01-16T11:36:55.262Z,100188.47
2024-01-16T11:39:25.952Z,100177.25
2024-01-16T11:41:59.315Z,100163.81
2024-01-16T11:44:44.754Z,100164.47
2024-01-16T11:47:21.037Z,100168.28
2024-01-16T11:49:49.812Z,100168.69
2024-01-16T11:52:44.173Z,100181.06
2024-01-16T11:55:27.830Z,100189.81
2024-01-16T11:58:18.214Z,100190.97
2024-01-16T12:00:47.917Z,100196.25
2024-01-16T12:03:28.762Z,100189.56
2024-01-16T12:06:07.358Z,100188.28
2024-01-16T12:08:36.771Z,100183.94
2024-01-16T12:11:05.176Z,100181.53
2024-01-16T12:13:34.641Z,100180.78
2024-01-16T12:16:03.450Z,100192.19
2024-01-16T12:18:40.305Z,100178.94
2024-01-16T12:21:14.071Z,100185.44
2024-01-16T12:23:49.463Z,100168.34
2024-01-16T12:26:23.697Z,100174.84
2024-01-16T12:28:57.639Z,100167.75
2024-01-16T12:31:28.369Z,100177.00
2024-01-16T12:34:06.532Z,100169.91
2024-01-16T12:36:34.397Z,100177.25
2024-01-16T12:39:02.370Z,100164.50
2024-01-16T12:41:44.129Z,100160.75
2024-01-16T12:44:16.796Z,100172.41
2024-01-16T12:46:47.152Z,100160.44
2024-01-16T12:50:00.961Z,100166.94
2024-01-16T12:52:30.973Z,100160.72
2024-01-16T12:55:02.707Z,100156.38
2024-01-16T12:57:30.821Z,100147.72
2024-01-16T13:00:03.549Z,100143.66
2024-01-16T13:02:32.322Z,100147.44
2024-01-16T13:05:01.496Z,100146.63
2024-01-16T13:07:31.901Z,100141.44
2024-01-16T13:10:14.063Z,100144.75
2024-01-16T13:12:42.439Z,100150.72
2024-01-16T13:15:12.640Z,100149.66
2024-01-16T13:17:40.782Z,100130.38
2024-01-16T13:20:11.837Z,100149.38
2024-01-16T13:22:44.864Z,100130.72
2024-01-16T13:25:16.698Z,100139.91
2024-01-16T13:27:44.867Z,100135.59
2024-01-16T13:30:15.985Z,100129.31
2024-01-16T13:32:44.096Z,100133.13
2024-01-16T13:35:13.794Z,100126.63
2024-01-16T13:37:51.252Z,100119.84
2024-01-16T13:40:22.069Z,100128.25
2024-01-16T13:42:51.066Z,100132.59
2024-01-16T13:45:20.650Z,100127.72
2024-01-16T13:47:49.188Z,100122.03
2024-01-16T13:50:18.623Z,100117.41
2024-01-16T13:52:46.754Z,100120.69
2024-01-16T13:55:14.810Z,100109.03
2024-01-16T13:57:42.786Z,100105.25
2024-01-16T14:00:15.236Z,100110.66
2024-01-16T14:02:45.888Z,100108.47
2024-01-16T14:05:16.565Z,100099.53
2024-01-16T14:07:47.353Z,100096.28
2024-01-16T14:10:16.423Z,100097.94
2024-01-16T14:12:45.881Z,100095.75
2024-01-16T14:15:20.497Z,100089.53
2024-01-16T14:17:51.720Z,100103.06
2024-01-16T14:20:27.125Z,100107.91
2024-01-16T14:22:55.810Z,100103.84
2024-01-16T14:25:24.322Z,100095.47
2024-01-16T14:28:00.066Z,100105.22
2024-01-16T14:30:29.854Z,100105.47
2024-01-16T14:32:59.136Z,100113.03
2024-01-16T14:35:27.527Z,100114.41
2024-01-16T14:37:56.385Z,100118.47
2024-01-16T14:40:27.332Z,100109.28
2024-01-16T14:42:57.532Z,100112.53
2024-01-16T14:45:26.159Z,100113.63
2024-01-16T14:47:55.510Z,100117.94
2024-01-16T14:50:26.339Z,100131.22
2024-01-16T14:52:54.915Z,100122.56
2024-01-16T14:55:23.856Z,100124.19
2024-01-16T14:57:54.239Z,100119.84
2024-01-16T15:00:24.855Z,100126.09
2024-01-16T15:02:52.877Z,100137.19
2024-01-16T15:05:21.851Z,100132.03
2024-01-16T15:07:53.108Z,100132.84
2024-01-16T15:10:21.908Z,100132.56
2024-01-16T15:12:49.989Z,100127.97
2024-01-16T15:15:18.081Z,100140.69
2024-01-16T15:17:46.693Z,100131.47
2024-01-16T15:20:14.728Z,100129.56
2024-01-16T15:22:46.631Z,100138.72
2024-01-16T15:25:17.800Z,100142.22
2024-01-16T15:27:49.398Z,100143.03
2024-01-16T15:30:18.982Z,100140.28
2024-01-16T15:32:47.192Z,100146.41
2024-01-16T15:35:15.101Z,100149.03
2024-01-16T15:37:45.284Z,100143.06
2024-01-16T15:40:14.221Z,100146.28
2024-01-16T15:42:44.797Z,100136.25
2024-01-16T15:45:14.621Z,100141.94
2024-01-16T15:47:44.553Z,100136.75
2024-01-16T15:50:13.868Z,100143.75
2024-01-16T15:52:42.054Z,100136.72
2024-01-16T15:55:11.733Z,100134.84
2024-01-16T15:57:39.777Z,100140.88
2024-01-16T16:00:11.596Z,100138.19
2024-01-16T16:02:40.310Z,100140.34
2024-01-16T16:05:09.322Z,100142.41
2024-01-16T16:07:37.279Z,100139.22
2024-01-16T16:10:05.543Z,100139.53
2024-01-16T16:12:33.295Z,100133.31
2024-01-16T16:15:01.231Z,100138.50
2024-01-16T16:17:30.545Z,100137.38
2024-01-16T16:20:00.835Z,100129.88
2024-01-16T16:22:28.737Z,100129.03
2024-01-16T16:24:58.444Z,100121.00
2024-01-16T16:27:31.129Z,100118.56
2024-01-16T16:29:59.439Z,100116.06
2024-01-16T16:32:27.940Z,100113.94
2024-01-16T16:34:57.654Z,100114.84
2024-01-16T16:37:25.443Z,100111.00
2024-01-16T16:39:55.510Z,100113.50
2024-01-16T16:42:23.435Z,100110.19
2024-01-16T16:44:51.372Z,100111.88
2024-01-16T16:47:19.677Z,100122.63
2024-01-16T16:49:47.979Z,100123.25
2024-01-16T16:52:18.832Z,100123.25
2024-01-16T16:54:48.930Z,100124.84
2024-01-16T16:57:16.748Z,100123.75
2024-01-16T16:59:46.469Z,100129.91
2024-01-16T17:02:15.657Z,100125.41
2024-01-16T17:04:44.586Z,100123.22
2024-01-16T17:07:13.787Z,100136.75
2024-01-16T17:09:44.324Z,100133.50
2024-01-16T17:12:12.626Z,100135.06
2024-01-16T17:14:42.116Z,100127.28
2024-01-16T17:17:12.131Z,100125.16
2024-01-16T17:19:41.563Z,100142.44
2024-01-16T17:22:10.220Z,100131.88
2024-01-16T17:24:38.351Z,100134.34
2024-01-16T17:27:08.241Z,100124.25
2024-01-16T17:29:36.486Z,100131.59
2024-01-16T17:32:04.795Z,100128.69
2024-01-16T17:34:32.649Z,100130.31
2024-01-16T17:37:00.558Z,100134.34
2024-01-16T17:39:29.048Z,100141.38
2024-01-16T17:41:56.972Z,100139.09
2024-01-16T17:44:26.113Z,100140.72
2024-01-16T17:46:53.979Z,100139.63
2024-01-16T17:49:23.976Z,100148.56
2024-01-16T17:51:51.718Z,100134.44
2024-01-16T17:54:19.445Z,100146.59
2024-01-16T17:56:48.945Z,100142.56
2024-01-16T17:59:17.084Z,100148.19
2024-01-16T18:01:47.730Z,100140.66
2024-01-16T18:04:15.719Z,100137.16
2024-01-16T18:06:44.220Z,100141.69
2024-01-16T18:09:12.223Z,100135.06
2024-01-16T18:11:53.871Z,100137.75
2024-01-16T18:14:21.650Z,100130.72
2024-01-16T18:16:54.543Z,100125.53
2024-01-16T18:19:25.554Z,100137.69
2024-01-16T18:21:53.438Z,100128.28
2024-01-16T18:24:21.866Z,100140.44
2024-01-16T18:26:49.801Z,100132.28
2024-01-16T18:29:21.240Z,100123.09
2024-01-16T18:31:51.249Z,100116.56
2024-01-16T18:34:21.623Z,100121.16
2024-01-16T18:36:50.707Z,100116.91
2024-01-16T18:39:20.501Z,100118.16
2024-01-16T18:41:49.475Z,100110.06
2024-01-16T18:44:17.448Z,100109.28
2024-01-16T18:46:45.575Z,100110.50
2024-01-16T18:49:15.050Z,100097.06
2024-01-16T18:51:43.052Z,100102.91
2024-01-16T18:54:10.852Z,100098.41
2024-01-16T18:56:39.381Z,100097.97
2024-01-16T18:59:07.752Z,100094.25
2024-01-16T19:01:35.855Z,100092.31
2024-01-16T19:04:07.824Z,100090.97
2024-01-16T19:06:37.111Z,100100.09
2024-01-16T19:09:06.559Z,100097.25
2024-01-16T19:11:36.212Z,100097.59
2024-01-16T19:14:04.411Z,100102.56
2024-01-16T19:16:34.004Z,100099.56
2024-01-16T19:19:01.881Z,100101.22
2024-01-16T19:21:30.815Z,100094.91
2024-01-16T19:24:00.066Z,100099.75
2024-01-16T19:26:27.833Z,100095.44
2024-01-16T19:28:55.764Z,100097.47
2024-01-16T19:31:23.559Z,100100.75
2024-01-16T19:33:51.413Z,100104.75
2024-01-16T19:36:19.268Z,100100.31
2024-01-16T19:38:47.020Z,100094.97
2024-01-16T19:41:17.404Z,100095.28
2024-01-16T19:43:45.683Z,100095.22
2024-01-16T19:46:13.615Z,100100.03
2024-01-16T19:48:42.749Z,100106.78
2024-01-16T19:51:11.101Z,100107.47
2024-01-16T19:53:39.821Z,100105.91
2024-01-16T19:56:08.661Z,100111.81
2024-01-16T19:58:40.823Z,100100.41
2024-01-16T20:01:09.261Z,100100.63
2024-01-16T20:03:38.508Z,100099.13
2024-01-16T20:06:07.044Z,100100.16
2024-01-16T20:08:35.119Z,100093.66
2024-01-16T20:11:05.887Z,100088.25
2024-01-16T20:13:34.012Z,100092.53
2024-01-16T20:16:06.076Z,100075.28
2024-01-16T20:18:38.480Z,100081.91
2024-01-16T20:21:17.312Z,100086.50
2024-01-16T20:23:48.112Z,100080.75
2024-01-16T20:26:27.683Z,100074.22
2024-01-16T20:29:26.157Z,100071.09
2024-01-16T20:31:57.147Z,100061.06
2024-01-16T20:34:25.154Z,100065.41
2024-01-16T20:36:56.108Z,100054.34
2024-01-16T20:39:23.944Z,100045.63
2024-01-16T20:41:51.873Z,100041.31
2024-01-16T20:44:21.884Z,100035.88
2024-01-16T20:46:49.937Z,100024.97
2024-01-16T20:49:19.357Z,100031.50
2024-01-16T20:51:47.448Z,100022.34
2024-01-16T20:54:16.646Z,100015.34
2024-01-16T20:56:46.562Z,100006.03
2024-01-16T20:59:14.414Z,100021.22
2024-01-16T21:01:42.569Z,100010.06
2024-01-16T21:04:10.415Z,100014.09
2024-01-16T21:06:39.741Z,100007.63
2024-01-16T21:09:07.724Z,100003.88
2024-01-16T21:11:35.538Z,100000.34
2024-01-16T21:14:03.333Z,99993.34
2024-01-16T21:16:32.235Z,99989.63
2024-01-16T21:19:06.376Z,99995.28
2024-01-16T21:21:33.669Z,99994.66
2024-01-16T21:24:05.699Z,99981.13
2024-01-16T21:26:33.586Z,99991.41
2024-01-16T21:29:01.402Z,99992.22
2024-01-16T21:31:31.648Z,99994.09
2024-01-16T21:33:59.698Z,99990.22
2024-01-16T21:36:27.508Z,99997.91
2024-01-16T21:38:55.442Z,99989.13
2024-01-16T21:41:24.686Z,99991.59
2024-01-16T21:43:52.682Z,99984.56
2024-01-16T21:46:20.566Z,99977.00
2024-01-16T21:48:48.606Z,99974.03
2024-01-16T21:51:16.565Z,99968.09
2024-01-16T21:53:44.322Z,99966.44
2024-01-16T21:56:12.198Z,99970.22
2024-01-16T21:58:41.365Z,99966.34
2024-01-16T22:01:11.465Z,99962.50
2024-01-16T22:03:39.253Z,99951.47
2024-01-16T22:06:07.505Z,99957.03
2024-01-16T22:08:35.604Z,99955.66
2024-01-16T22:11:06.182Z,99953.56
2024-01-16T22:13:34.185Z,99952.00
2024-01-16T22:16:04.726Z,99947.66
2024-01-16T22:18:33.127Z,99964.09
2024-01-16T22:21:02.873Z,99952.53
2024-01-16T22:23:31.112Z,99944.41
2024-01-16T22:26:01.325Z,99947.00
2024-01-16T22:28:29.688Z,99949.13
2024-01-16T22:30:57.953Z,99951.88
2024-01-16T22:33:28.388Z,99945.06
2024-01-16T22:35:56.817Z,99939.28
2024-01-16T22:38:25.155Z,99944.19
2024-01-16T22:40:52.959Z,99944.88
2024-01-16T22:43:20.796Z,99948.88
2024-01-16T22:45:50.558Z,99943.00
2024-01-16T22:48:18.490Z,99931.72
2024-01-16T22:50:50.825Z,99925.47
2024-01-16T22:53:18.936Z,99925.09
2024-01-16T22:55:47.871Z,99912.19
2024-01-16T22:58:16.903Z,99909.31
2024-01-16T23:00:44.854Z,99895.25
2024-01-16T23:03:14.381Z,99897.91
2024-01-16T23:05:44.279Z,99892.56
2024-01-16T23:08:19.399Z,99889.00
2024-01-16T23:10:47.661Z,99880.00
2024-01-16T23:13:16.592Z,99883.19
2024-01-16T23:15:46.287Z,99877.56
2024-01-16T23:20:42.649Z,99866.63
2024-01-16T23:23:12.950Z,99856.69
2024-01-16T23:25:42.291Z,99863.88
2024-01-16T23:28:10.058Z,99852.78
2024-01-16T23:30:40.440Z,99848.19
2024-01-16T23:33:09.208Z,99844.22
2024-01-16T23:35:37.247Z,99845.03
2024-01-16T23:38:06.993Z,99842.50
2024-01-16T23:40:34.799Z,99840.94
2024-01-16T23:43:04.462Z,99837.69
2024-01-16T23:45:34.999Z,99829.25
2024-01-16T23:48:03.386Z,99831.00
2024-01-16T23:50:31.803Z,99823.31
2024-01-16T23:53:00.020Z,99825.50
2024-01-16T23:55:27.789Z,99825.38
2024-01-16T23:57:59.114Z,99812.56
